createdAt,value
2022-08-01T00:00:04.976Z,98109.78
2022-08-01T00:02:32.037Z,98115.41
2022-08-01T00:04:58.847Z,98108.56
2022-08-01T00:07:25.337Z,98114.97
2022-08-01T00:09:51.855Z,98108.97
2022-08-01T00:12:18.363Z,98122.22
2022-08-01T00:14:44.952Z,98111.38
2022-08-01T00:17:11.458Z,98118.22
2022-08-01T00:19:37.943Z,98120.19
2022-08-01T00:22:04.836Z,98115.00
2022-08-01T00:24:31.530Z,98114.59
2022-08-01T00:26:58.025Z,98111.03
2022-08-01T00:30:09.734Z,98122.28
2022-08-01T00:32:11.055Z,98111.03
2022-08-01T00:34:37.568Z,98115.47
2022-08-01T00:37:04.071Z,98116.69
2022-08-01T00:39:30.794Z,98115.06
2022-08-01T00:42:01.693Z,98115.09
2022-08-01T00:44:28.271Z,98115.06
2022-08-01T00:46:54.782Z,98115.88
2022-08-01T00:49:21.317Z,98119.47
2022-08-01T00:51:47.882Z,98113.47
2022-08-01T00:54:16.651Z,98114.66
2022-08-01T00:56:43.568Z,98113.88
2022-08-01T00:59:10.166Z,98119.88
2022-08-01T01:01:39.987Z,98116.28
2022-08-01T01:04:08.327Z,98113.47
2022-08-01T01:06:38.823Z,98115.09
2022-08-01T01:09:42.852Z,98110.66
2022-08-01T01:12:26.468Z,98110.28
2022-08-01T01:15:02.297Z,98117.50
2022-08-01T01:17:50.365Z,98111.53
2022-08-01T01:20:18.087Z,98117.50
2022-08-01T01:22:53.878Z,98117.50
2022-08-01T01:25:27.016Z,98114.31
2022-08-01T01:28:16.299Z,98115.53
2022-08-01T01:30:44.043Z,98115.53
2022-08-01T01:33:11.293Z,98115.94
2022-08-01T01:35:41.550Z,98117.16
2022-08-01T01:38:28.869Z,98114.72
2022-08-01T01:40:55.442Z,98118.34
2022-08-01T01:43:21.952Z,98123.97
2022-08-01T01:45:55.748Z,98124.38
2022-08-01T01:48:22.310Z,98114.75
2022-08-01T01:50:49.006Z,98121.97
2022-08-01T01:53:16.929Z,98133.19
2022-08-01T01:55:49.294Z,98119.56
2022-08-01T01:58:16.603Z,98126.38
2022-08-01T02:00:43.483Z,98134.41
2022-08-01T02:03:12.636Z,98124.38
2022-08-01T02:05:39.658Z,98125.97
2022-08-01T02:08:06.740Z,98125.59
2022-08-01T02:10:33.470Z,98125.59
2022-08-01T02:13:00.738Z,98130.00
2022-08-01T02:15:27.590Z,98137.22
2022-08-01T02:17:54.528Z,98139.22
2022-08-01T02:20:21.168Z,98134.41
2022-08-01T02:22:53.678Z,98128.78
2022-08-01T02:26:09.692Z,98140.41
2022-08-01T02:28:39.421Z,98137.22
2022-08-01T02:31:07.763Z,98136.00
2022-08-01T02:33:42.915Z,98142.44
2022-08-01T02:36:32.031Z,98149.63
2022-08-01T02:38:56.788Z,98134.44
2022-08-01T02:41:25.816Z,98138.44
2022-08-01T02:43:53.690Z,98131.22
2022-08-01T02:46:40.391Z,98138.44
2022-08-01T02:49:08.679Z,98148.47
2022-08-01T02:51:35.258Z,98144.06
2022-08-01T02:54:02.669Z,98139.25
2022-08-01T02:56:35.810Z,98147.25
2022-08-01T02:59:08.752Z,98149.66
2022-08-01T03:01:35.480Z,98148.03
2022-08-01T03:04:04.759Z,98148.06
2022-08-01T03:06:31.277Z,98151.69
2022-08-01T03:08:57.770Z,98150.47
2022-08-01T03:11:25.100Z,98149.25
2022-08-01T03:13:51.627Z,98150.06
2022-08-01T03:16:18.195Z,98160.09
2022-08-01T03:18:45.832Z,98154.88
2022-08-01T03:21:12.977Z,98154.88
2022-08-01T03:23:39.635Z,98156.88
2022-08-01T03:26:06.282Z,98167.31
2022-08-01T03:28:32.854Z,98162.09
2022-08-01T03:30:59.607Z,98160.50
2022-08-01T03:33:26.194Z,98164.13
2022-08-01T03:35:54.754Z,98166.13
2022-08-01T03:38:23.931Z,98162.50
2022-08-01T03:41:14.181Z,98173.72
2022-08-01T03:43:42.679Z,98178.13
2022-08-01T03:46:12.416Z,98176.13
2022-08-01T03:48:41.696Z,98179.72
2022-08-01T03:51:08.198Z,98172.50
2022-08-01T03:53:34.683Z,98174.53
2022-08-01T03:56:02.055Z,98172.91
2022-08-01T03:58:29.831Z,98178.53
2022-08-01T04:00:56.418Z,98173.31
2022-08-01T04:03:23.476Z,98180.94
2022-08-01T04:05:50.006Z,98178.13
2022-08-01T04:08:16.517Z,98180.91
2022-08-01T04:10:43.124Z,98170.53
2022-08-01T04:13:09.919Z,98182.53
2022-08-01T04:15:36.441Z,98191.38
2022-08-01T04:18:03.002Z,98188.16
2022-08-01T04:20:29.566Z,98196.16
2022-08-01T04:22:56.084Z,98195.75
2022-08-01T04:25:27.313Z,98195.75
2022-08-01T04:27:53.838Z,98196.97
2022-08-01T04:30:23.741Z,98201.38
2022-08-01T04:32:50.855Z,98203.78
2022-08-01T04:35:23.358Z,98211.41
2022-08-01T04:38:03.972Z,98209.78
2022-08-01T04:40:30.491Z,98209.78
2022-08-01T04:42:57.020Z,98212.19
2022-08-01T04:45:23.519Z,98219.78
2022-08-01T04:47:50.126Z,98219.78
2022-08-01T04:50:16.657Z,98219.41
2022-08-01T04:52:43.183Z,98219.81
2022-08-01T04:55:09.924Z,98216.59
2022-08-01T04:57:38.014Z,98219.00
2022-08-01T05:00:05.063Z,98230.66
2022-08-01T05:02:31.811Z,98226.63
2022-08-01T05:04:58.313Z,98225.41
2022-08-01T05:07:25.455Z,98232.25
2022-08-01T05:09:51.961Z,98239.44
2022-08-01T05:12:18.516Z,98240.22
2022-08-01T05:14:45.482Z,98228.22
2022-08-01T05:17:12.024Z,98229.03
2022-08-01T05:19:38.938Z,98242.63
2022-08-01T05:22:06.801Z,98237.44
2022-08-01T05:24:37.300Z,98233.84
2022-08-01T05:27:08.704Z,98224.63
2022-08-01T05:29:42.657Z,98233.03
2022-08-01T05:32:11.210Z,98229.41
2022-08-01T05:34:37.721Z,98236.25
2022-08-01T05:37:04.285Z,98230.25
2022-08-01T05:39:31.119Z,98233.44
2022-08-01T05:41:57.639Z,98237.47
2022-08-01T05:44:24.180Z,98245.84
2022-08-01T05:46:50.686Z,98241.88
2022-08-01T05:49:17.263Z,98245.84
2022-08-01T05:51:43.824Z,98237.03
2022-08-01T05:54:10.332Z,98249.06
2022-08-01T05:56:36.897Z,98249.47
2022-08-01T05:59:03.440Z,98249.47
2022-08-01T06:01:29.964Z,98249.06
2022-08-01T06:03:56.547Z,98255.09
2022-08-01T06:06:25.558Z,98253.06
2022-08-01T06:08:52.884Z,98257.50
2022-08-01T06:11:19.418Z,98255.47
2022-08-01T06:13:49.011Z,98256.69
2022-08-01T06:16:16.352Z,98263.09
2022-08-01T06:18:42.903Z,98262.31
2022-08-01T06:21:09.403Z,98262.28
2022-08-01T06:23:35.969Z,98274.31
2022-08-01T06:26:02.684Z,98270.69
2022-08-01T06:28:29.235Z,98269.06
2022-08-01T06:30:55.845Z,98268.94
2022-08-01T06:33:22.382Z,98271.31
2022-08-01T06:35:48.940Z,98261.66
2022-08-01T06:38:15.480Z,98271.72
2022-08-01T06:40:42.064Z,98274.19
2022-08-01T06:43:08.680Z,98267.00
2022-08-01T06:45:37.319Z,98269.44
2022-08-01T06:48:04.123Z,98273.03
2022-08-01T06:50:30.712Z,98271.44
2022-08-01T06:52:57.199Z,98280.59
2022-08-01T06:55:23.818Z,98279.78
2022-08-01T06:57:51.396Z,98280.19
2022-08-01T07:00:21.797Z,98264.16
2022-08-01T07:02:48.316Z,98281.41
2022-08-01T07:05:14.839Z,98270.53
2022-08-01T07:07:41.351Z,98268.91
2022-08-01T07:10:09.482Z,98272.03
2022-08-01T07:12:38.980Z,98264.72
2022-08-01T07:15:06.606Z,98270.84
2022-08-01T07:17:33.326Z,98265.59
2022-08-01T07:19:59.845Z,98265.41
2022-08-01T07:22:26.381Z,98270.47
2022-08-01T07:24:54.484Z,98270.38
2022-08-01T07:27:23.817Z,98279.78
2022-08-01T07:29:52.455Z,98270.28
2022-08-01T07:32:20.088Z,98280.88
2022-08-01T07:34:46.771Z,98281.63
2022-08-01T07:37:13.286Z,98282.50
2022-08-01T07:39:39.825Z,98286.50
2022-08-01T07:42:08.251Z,98292.81
2022-08-01T07:44:35.863Z,98291.19
2022-08-01T07:47:02.364Z,98291.03
2022-08-01T07:49:29.140Z,98292.34
2022-08-01T07:52:03.222Z,98290.75
2022-08-01T07:54:33.405Z,98298.69
2022-08-01T07:57:00.872Z,98298.78
2022-08-01T07:59:27.395Z,98296.38
2022-08-01T08:01:53.983Z,98302.00
2022-08-01T08:04:20.529Z,98302.59
2022-08-01T08:06:48.588Z,98311.13
2022-08-01T08:09:15.915Z,98314.38
2022-08-01T08:11:47.777Z,98314.75
2022-08-01T08:14:15.110Z,98313.09
2022-08-01T08:16:41.638Z,98319.84
2022-08-01T08:19:08.163Z,98318.16
2022-08-01T08:21:34.716Z,98319.34
2022-08-01T08:24:19.736Z,98321.78
2022-08-01T08:26:52.324Z,98314.19
2022-08-01T08:29:18.920Z,98313.84
2022-08-01T08:31:51.375Z,98315.09
2022-08-01T08:34:18.935Z,98322.06
2022-08-01T08:36:47.778Z,98319.09
2022-08-01T08:39:14.749Z,98326.78
2022-08-01T08:41:41.598Z,98318.53
2022-08-01T08:44:10.457Z,98325.06
2022-08-01T08:46:47.905Z,98331.81
2022-08-01T08:49:17.377Z,98326.88
2022-08-01T08:51:43.932Z,98342.16
2022-08-01T08:54:12.134Z,98344.38
2022-08-01T08:56:38.656Z,98341.81
2022-08-01T08:59:05.286Z,98340.34
2022-08-01T09:01:33.639Z,98341.41
2022-08-01T09:04:00.423Z,98337.34
2022-08-01T09:06:27.624Z,98340.28
2022-08-01T09:08:54.833Z,98341.44
2022-08-01T09:11:22.554Z,98350.97
2022-08-01T09:14:12.644Z,98340.31
2022-08-01T09:19:40.500Z,98356.53
2022-08-01T09:22:08.488Z,98362.22
2022-08-01T09:24:36.109Z,98365.09
2022-08-01T09:27:05.806Z,98362.72
2022-08-01T09:29:38.143Z,98366.66
2022-08-01T09:32:08.020Z,98362.63
2022-08-01T09:34:34.967Z,98367.47
2022-08-01T09:37:02.778Z,98364.53
2022-08-01T09:39:34.800Z,98370.91
2022-08-01T09:42:02.393Z,98379.84
2022-08-01T09:44:43.069Z,98369.88
2022-08-01T09:47:12.031Z,98377.50
2022-08-01T09:49:50.699Z,98381.22
2022-08-01T09:52:19.621Z,98376.88
2022-08-01T09:54:59.632Z,98380.47
2022-08-01T09:57:26.436Z,98384.00
2022-08-01T09:59:59.700Z,98393.59
2022-08-01T10:02:27.904Z,98396.13
2022-08-01T10:05:03.224Z,98394.22
2022-08-01T10:07:43.443Z,98391.84
2022-08-01T10:10:15.144Z,98394.94
2022-08-01T10:12:44.476Z,98394.00
2022-08-01T10:15:12.279Z,98394.31
2022-08-01T10:17:50.509Z,98396.19
2022-08-01T10:20:30.966Z,98394.91
2022-08-01T10:23:00.505Z,98393.19
2022-08-01T10:25:42.077Z,98388.06
2022-08-01T10:28:21.237Z,98392.66
2022-08-01T10:30:49.774Z,98391.88
2022-08-01T10:33:49.858Z,98393.91
2022-08-01T10:36:02.795Z,98394.53
2022-08-01T10:38:29.440Z,98396.00
2022-08-01T10:40:56.918Z,98391.50
2022-08-01T10:43:23.432Z,98401.56
2022-08-01T10:45:50.256Z,98388.16
2022-08-01T10:48:23.426Z,98405.41
2022-08-01T10:50:53.153Z,98394.34
2022-08-01T10:53:23.368Z,98400.50
2022-08-01T10:55:57.233Z,98396.25
2022-08-01T10:58:38.011Z,98390.06
2022-08-01T11:01:15.718Z,98388.88
2022-08-01T11:03:56.765Z,98386.53
2022-08-01T11:06:26.806Z,98395.47
2022-08-01T11:08:54.917Z,98395.59
2022-08-01T11:11:21.935Z,98392.72
2022-08-01T11:13:58.796Z,98392.47
2022-08-01T11:16:29.537Z,98400.16
2022-08-01T11:18:56.023Z,98403.44
2022-08-01T11:21:58.094Z,98397.69
2022-08-01T11:24:11.487Z,98408.53
2022-08-01T11:26:39.996Z,98401.81
2022-08-01T11:29:21.071Z,98400.91
2022-08-01T11:31:48.889Z,98401.91
2022-08-01T11:34:16.334Z,98401.72
2022-08-01T11:36:58.094Z,98411.34
2022-08-01T11:39:25.199Z,98403.94
2022-08-01T11:41:53.501Z,98412.94
2022-08-01T11:44:26.649Z,98410.09
2022-08-01T11:47:08.682Z,98407.88
2022-08-01T11:49:38.997Z,98402.66
2022-08-01T11:52:09.451Z,98405.19
2022-08-01T11:54:48.801Z,98407.59
2022-08-01T11:57:23.054Z,98399.97
2022-08-01T12:00:03.591Z,98406.25
2022-08-01T12:02:32.877Z,98405.34
2022-08-01T12:05:01.404Z,98409.78
2022-08-01T12:07:30.101Z,98413.84
2022-08-01T12:10:10.154Z,98405.44
2022-08-01T12:12:36.972Z,98414.47
2022-08-01T12:15:09.903Z,98413.13
2022-08-01T12:17:47.078Z,98410.31
2022-08-01T12:20:25.880Z,98415.22
2022-08-01T12:22:55.898Z,98416.88
2022-08-01T12:25:22.528Z,98417.88
2022-08-01T12:27:52.140Z,98422.22
2022-08-01T12:30:25.926Z,98415.44
2022-08-01T12:32:52.829Z,98420.19
2022-08-01T12:35:24.271Z,98421.47
2022-08-01T12:37:52.344Z,98429.16
2022-08-01T12:40:28.891Z,98420.34
2022-08-01T12:42:56.788Z,98424.41
2022-08-01T12:45:30.387Z,98424.31
2022-08-01T12:48:00.413Z,98426.25
2022-08-01T12:50:29.216Z,98428.03
2022-08-01T12:52:55.715Z,98434.69
2022-08-01T12:55:23.177Z,98433.09
2022-08-01T12:57:53.979Z,98434.41
2022-08-01T13:00:25.027Z,98436.22
2022-08-01T13:03:06.225Z,98439.56
2022-08-01T13:05:55.194Z,98430.38
2022-08-01T13:08:22.783Z,98438.88
2022-08-01T13:10:49.834Z,98438.91
2022-08-01T13:13:27.859Z,98439.78
2022-08-01T13:16:04.782Z,98444.25
2022-08-01T13:18:33.958Z,98454.41
2022-08-01T13:21:17.384Z,98452.75
2022-08-01T13:24:13.488Z,98460.19
2022-08-01T13:26:50.917Z,98451.03
2022-08-01T13:29:18.610Z,98453.81
2022-08-01T13:31:45.155Z,98456.31
2022-08-01T13:34:11.806Z,98455.97
2022-08-01T13:36:38.336Z,98455.94
2022-08-01T13:39:23.391Z,98456.72
2022-08-01T13:41:50.113Z,98455.53
2022-08-01T13:44:16.987Z,98459.59
2022-08-01T13:46:49.335Z,98452.78
2022-08-01T13:49:17.754Z,98456.00
2022-08-01T13:51:46.758Z,98454.00
2022-08-01T13:54:13.315Z,98457.59
2022-08-01T13:56:39.831Z,98464.38
2022-08-01T13:59:07.444Z,98456.75
2022-08-01T14:01:34.758Z,98457.47
2022-08-01T14:04:01.626Z,98452.22
2022-08-01T14:06:28.208Z,98457.34
2022-08-01T14:08:54.701Z,98466.13
2022-08-01T14:11:21.518Z,98467.53
2022-08-01T14:13:48.048Z,98474.06
2022-08-01T14:16:14.987Z,98472.88
2022-08-01T14:18:42.016Z,98474.63
2022-08-01T14:21:10.844Z,98478.22
2022-08-01T14:23:37.427Z,98469.22
2022-08-01T14:26:08.393Z,98464.19
2022-08-01T14:28:38.963Z,98460.66
2022-08-01T14:31:07.153Z,98457.56
2022-08-01T14:33:34.373Z,98459.63
2022-08-01T14:36:05.534Z,98464.91
2022-08-01T14:38:47.550Z,98466.25
2022-08-01T14:41:15.190Z,98473.78
2022-08-01T14:43:41.683Z,98470.75
2022-08-01T14:46:10.736Z,98470.16
2022-08-01T14:48:37.263Z,98464.66
2022-08-01T14:51:04.327Z,98468.41
2022-08-01T14:53:31.318Z,98469.78
2022-08-01T14:55:57.825Z,98468.56
2022-08-01T14:58:24.476Z,98471.88
2022-08-01T15:00:54.301Z,98464.66
2022-08-01T15:03:23.130Z,98457.69
2022-08-01T15:05:49.635Z,98452.06
2022-08-01T15:08:16.132Z,98458.22
2022-08-01T15:10:42.614Z,98464.25
2022-08-01T15:13:09.098Z,98461.47
2022-08-01T15:15:35.585Z,98471.41
2022-08-01T15:18:02.098Z,98465.38
2022-08-01T15:20:28.597Z,98463.97
2022-08-01T15:22:55.192Z,98459.63
2022-08-01T15:25:21.760Z,98457.25
2022-08-01T15:27:48.626Z,98466.91
2022-08-01T15:30:15.404Z,98463.16
2022-08-01T15:32:41.911Z,98463.31
2022-08-01T15:35:10.973Z,98464.66
2022-08-01T15:37:42.627Z,98457.66
2022-08-01T15:42:36.483Z,98464.09
2022-08-01T15:45:03.114Z,98466.22
2022-08-01T15:47:30.652Z,98467.72
2022-08-01T15:50:00.393Z,98461.63
2022-08-01T15:52:31.659Z,98468.50
2022-08-01T15:54:58.528Z,98457.41
2022-08-01T15:57:25.043Z,98461.03
2022-08-01T15:59:51.531Z,98461.19
2022-08-01T16:02:18.125Z,98461.28
2022-08-01T16:04:44.682Z,98466.25
2022-08-01T16:07:11.619Z,98464.66
2022-08-01T16:09:38.115Z,98459.50
2022-08-01T16:12:05.006Z,98463.50
2022-08-01T16:14:31.882Z,98469.91
2022-08-01T16:16:58.401Z,98463.03
2022-08-01T16:19:24.930Z,98463.75
2022-08-01T16:21:52.278Z,98460.22
2022-08-01T16:24:18.785Z,98465.84
2022-08-01T16:26:45.622Z,98461.16
2022-08-01T16:29:12.115Z,98459.94
2022-08-01T16:31:48.051Z,98458.72
2022-08-01T16:34:25.557Z,98461.88
2022-08-01T16:36:53.309Z,98451.03
2022-08-01T16:39:23.255Z,98458.34
2022-08-01T16:41:50.320Z,98455.13
2022-08-01T16:44:26.778Z,98461.09
2022-08-01T16:47:00.632Z,98462.28
2022-08-01T16:49:27.160Z,98453.81
2022-08-01T16:51:53.690Z,98453.09
2022-08-01T16:54:25.963Z,98459.53
2022-08-01T16:56:53.014Z,98461.91
2022-08-01T16:59:19.596Z,98471.56
2022-08-01T17:01:59.201Z,98467.19
2022-08-01T17:04:29.500Z,98461.50
2022-08-01T17:06:56.074Z,98461.88
2022-08-01T17:09:22.648Z,98473.91
2022-08-01T17:11:49.180Z,98461.84
2022-08-01T17:14:15.702Z,98465.91
2022-08-01T17:16:42.228Z,98464.28
2022-08-01T17:19:08.812Z,98469.13
2022-08-01T17:21:36.409Z,98467.94
2022-08-01T17:24:05.617Z,98471.91
2022-08-01T17:26:32.164Z,98470.59
2022-08-01T17:28:58.684Z,98474.28
2022-08-01T17:31:25.194Z,98461.88
2022-08-01T17:33:54.939Z,98465.13
2022-08-01T17:36:21.628Z,98466.31
2022-08-01T17:38:48.168Z,98475.22
2022-08-01T17:41:14.734Z,98461.59
2022-08-01T17:43:41.284Z,98460.81
2022-08-01T17:46:08.233Z,98463.19
2022-08-01T17:48:34.771Z,98466.03
2022-08-01T17:51:01.292Z,98462.84
2022-08-01T17:53:27.834Z,98460.81
2022-08-01T17:55:57.903Z,98468.91
2022-08-01T17:58:49.572Z,98472.94
2022-08-01T18:01:15.067Z,98470.53
2022-08-01T18:03:42.020Z,98468.13
2022-08-01T18:06:13.720Z,98477.75
2022-08-01T18:08:41.854Z,98478.13
2022-08-01T18:11:09.280Z,98476.16
2022-08-01T18:13:35.974Z,98476.16
2022-08-01T18:16:06.228Z,98475.31
2022-08-01T18:18:34.171Z,98473.72
2022-08-01T18:21:04.549Z,98476.13
2022-08-01T18:23:31.937Z,98470.09
2022-08-01T18:26:01.362Z,98474.00
2022-08-01T18:28:35.491Z,98475.63
2022-08-01T18:31:05.464Z,98475.91
2022-08-01T18:33:31.975Z,98481.03
2022-08-01T18:36:03.687Z,98471.41
2022-08-01T18:38:33.834Z,98477.00
2022-08-01T18:41:01.787Z,98476.56
2022-08-01T18:43:28.525Z,98481.69
2022-08-01T18:45:57.223Z,98482.84
2022-08-01T18:48:24.002Z,98488.84
2022-08-01T18:50:50.572Z,98489.59
2022-08-01T18:53:18.591Z,98488.38
2022-08-01T18:55:45.124Z,98488.78
2022-08-01T18:58:11.627Z,98485.03
2022-08-01T19:00:39.730Z,98491.38
2022-08-01T19:03:06.349Z,98489.78
2022-08-01T19:05:35.170Z,98489.69
2022-08-01T19:08:05.349Z,98500.09
2022-08-01T19:10:36.694Z,98499.22
2022-08-01T19:13:03.588Z,98505.25
2022-08-01T19:15:30.248Z,98505.53
2022-08-01T19:17:56.774Z,98505.06
2022-08-01T19:20:23.311Z,98508.63
2022-08-01T19:22:49.805Z,98516.75
2022-08-01T19:25:16.354Z,98519.84
2022-08-01T19:27:48.129Z,98519.31
2022-08-01T19:30:15.092Z,98528.97
2022-08-01T19:32:45.483Z,98524.75
2022-08-01T19:35:13.311Z,98527.56
2022-08-01T19:37:47.609Z,98527.13
2022-08-01T19:40:27.151Z,98530.94
2022-08-01T19:42:54.951Z,98534.72
2022-08-01T19:45:21.608Z,98544.38
2022-08-01T19:47:51.594Z,98543.41
2022-08-01T19:50:22.811Z,98549.06
2022-08-01T19:52:49.347Z,98553.03
2022-08-01T19:55:15.856Z,98552.25
2022-08-01T19:57:44.987Z,98546.72
2022-08-01T20:00:13.011Z,98552.31
2022-08-01T20:02:55.146Z,98555.16
2022-08-01T20:05:24.118Z,98558.75
2022-08-01T20:07:50.851Z,98555.25
2022-08-01T20:10:19.942Z,98553.34
2022-08-01T20:12:46.867Z,98549.31
2022-08-01T20:15:13.383Z,98559.28
2022-08-01T20:17:40.960Z,98551.16
2022-08-01T20:20:07.918Z,98555.13
2022-08-01T20:22:35.041Z,98559.97
2022-08-01T20:25:01.721Z,98557.59
2022-08-01T20:27:29.335Z,98563.16
2022-08-01T20:30:00.291Z,98563.09
2022-08-01T20:32:31.124Z,98553.94
2022-08-01T20:34:57.658Z,98554.53
2022-08-01T20:38:05.382Z,98552.13
2022-08-01T20:40:12.344Z,98562.31
2022-08-01T20:42:39.150Z,98556.66
2022-08-01T20:45:06.178Z,98558.78
2022-08-01T20:47:35.519Z,98560.72
2022-08-01T20:50:27.642Z,98566.19
2022-08-01T20:53:07.085Z,98560.03
2022-08-01T20:55:43.010Z,98559.59
2022-08-01T20:58:10.166Z,98560.41
2022-08-01T21:00:38.253Z,98552.28
2022-08-01T21:03:14.329Z,98548.19
2022-08-01T21:05:41.913Z,98559.41
2022-08-01T21:08:24.375Z,98554.94
2022-08-01T21:10:56.010Z,98551.31
2022-08-01T21:13:31.810Z,98562.59
2022-08-01T21:16:22.987Z,98562.59
2022-08-01T21:21:45.038Z,98563.72
2022-08-01T21:24:16.147Z,98565.34
2022-08-01T21:26:43.062Z,98579.16
2022-08-01T21:29:10.329Z,98578.22
2022-08-01T21:31:41.022Z,98577.97
2022-08-01T21:34:08.255Z,98580.78
2022-08-01T21:36:35.524Z,98579.41
2022-08-01T21:39:02.844Z,98572.25
2022-08-01T21:42:00.926Z,98573.78
2022-08-01T21:44:16.533Z,98574.44
2022-08-01T21:46:43.057Z,98572.88
2022-08-01T21:49:09.620Z,98571.09
2022-08-01T21:51:52.007Z,98569.38
2022-08-01T21:54:27.609Z,98565.44
2022-08-01T21:57:04.992Z,98566.53
2022-08-01T22:00:09.968Z,98553.00
2022-08-01T22:02:43.386Z,98565.06
2022-08-01T22:05:11.201Z,98560.53
2022-08-01T22:07:48.364Z,98561.56
2022-08-01T22:10:16.422Z,98554.41
2022-08-01T22:12:42.968Z,98555.63
2022-08-01T22:15:09.908Z,98565.84
2022-08-01T22:17:36.420Z,98561.16
2022-08-01T22:20:03.106Z,98557.28
2022-08-01T22:22:50.774Z,98565.56
2022-08-01T22:25:16.403Z,98564.03
2022-08-01T22:28:08.449Z,98564.78
2022-08-01T22:30:30.443Z,98563.09
2022-08-01T22:33:07.290Z,98553.69
2022-08-01T22:35:42.376Z,98560.28
2022-08-01T22:38:09.721Z,98565.00
2022-08-01T22:40:36.545Z,98555.31
2022-08-01T22:43:03.878Z,98553.81
2022-08-01T22:45:33.518Z,98567.66
2022-08-01T22:48:25.167Z,98562.50
2022-08-01T22:51:05.927Z,98569.25
2022-08-01T22:53:42.609Z,98577.66
2022-08-01T22:56:09.981Z,98579.66
2022-08-01T22:58:36.612Z,98573.13
2022-08-01T23:01:03.164Z,98579.34
2022-08-01T23:03:33.147Z,98581.63
2022-08-01T23:06:03.319Z,98582.81
2022-08-01T23:08:32.803Z,98581.94
2022-08-01T23:11:00.586Z,98588.13
2022-08-01T23:13:28.363Z,98584.78
2022-08-01T23:15:54.894Z,98584.41
2022-08-01T23:18:21.452Z,98587.22
2022-08-01T23:20:48.045Z,98589.44
2022-08-01T23:23:14.560Z,98590.19
2022-08-01T23:25:41.108Z,98596.78
2022-08-01T23:28:07.615Z,98594.78
2022-08-01T23:30:34.607Z,98592.94
2022-08-01T23:33:01.153Z,98581.03
2022-08-01T23:35:27.785Z,98587.41
2022-08-01T23:38:01.913Z,98575.00
2022-08-01T23:40:29.258Z,98577.66
2022-08-01T23:42:55.902Z,98582.97
2022-08-01T23:45:22.937Z,98577.31
2022-08-01T23:47:49.467Z,98581.59
2022-08-01T23:50:15.989Z,98576.00
2022-08-01T23:52:48.166Z,98573.16
2022-08-01T23:55:15.698Z,98569.19
2022-08-01T23:57:42.442Z,98565.31
